Orchard, Nebraska
Current Conditions -  °F | °C
As of 2:35 PM on Monday 22 Dec 2014 (Local Time) from KONL Reporting Station
Overcast Overcast  
Wind Chill: 29°   Ceiling: 2500
Heat Index: 39°   Visibility: 10mi
Dew Point: 36°   Wind: 20mph
Humidity: 88%   Direction: 310°NW
Pressure: 29.45"   Gusts: 28mph
Location:  42.34°N, 98.24°W
Report Text: KONL 222035Z AUTO 31017G24KT 10SM SCT014 BKN025 OVC033 04/02 A2945 RMK AO2 T00390020
Loading
Personal Weather Stations






























Interactive Weather Map New forecast layout! Learn more

10-Day Weather Forecast

Advertisements
Track Severe Weather on mobile